sensor_id;sensor_type;location;lat;lon;timestamp;pressure;altitude;pressure_sealevel;temperature
28803;BMP280;15949;55.656;37.422;2022-12-18T00:02:21;98815.06;;;-5.12
28803;BMP280;15949;55.656;37.422;2022-12-18T00:07:27;98807.66;;;-4.98
28803;BMP280;15949;55.656;37.422;2022-12-18T00:12:33;98799.78;;;-5.01
28803;BMP280;15949;55.656;37.422;2022-12-18T00:17:38;98801.53;;;-5.06
28803;BMP280;15949;55.656;37.422;2022-12-18T00:22:44;98797.09;;;-5.17
28803;BMP280;15949;55.656;37.422;2022-12-18T00:27:49;98790.22;;;-5.26
28803;BMP280;15949;55.656;37.422;2022-12-18T00:32:55;98784.47;;;-5.19
28803;BMP280;15949;55.656;37.422;2022-12-18T00:38:01;98774.72;;;-5.22
28803;BMP280;15949;55.656;37.422;2022-12-18T00:43:07;98783.06;;;-5.16
28803;BMP280;15949;55.656;37.422;2022-12-18T00:48:13;98765.44;;;-5.23
28803;BMP280;15949;55.656;37.422;2022-12-18T00:53:18;98747.06;;;-5.30
28803;BMP280;15949;55.656;37.422;2022-12-18T00:58:24;98735.38;;;-5.24
28803;BMP280;15949;55.656;37.422;2022-12-18T01:03:29;98720.63;;;-5.32
28803;BMP280;15949;55.656;37.422;2022-12-18T01:08:36;98716.53;;;-5.33
28803;BMP280;15949;55.656;37.422;2022-12-18T01:13:42;98707.91;;;-5.37
28803;BMP280;15949;55.656;37.422;2022-12-18T01:18:51;98707.16;;;-5.38
28803;BMP280;15949;55.656;37.422;2022-12-18T01:23:58;98712.44;;;-5.22
28803;BMP280;15949;55.656;37.422;2022-12-18T01:29:03;98719.78;;;-5.24
28803;BMP280;15949;55.656;37.422;2022-12-18T01:34:09;98721.22;;;-5.27
28803;BMP280;15949;55.656;37.422;2022-12-18T01:39:15;98712.25;;;-5.29
28803;BMP280;15949;55.656;37.422;2022-12-18T01:55:14;98713.66;;;-5.32
28803;BMP280;15949;55.656;37.422;2022-12-18T02:00:23;98708.13;;;-5.30
28803;BMP280;15949;55.656;37.422;2022-12-18T02:05:38;98702.19;;;-5.31
28803;BMP280;15949;55.656;37.422;2022-12-18T02:11:01;98714.19;;;-5.38
28803;BMP280;15949;55.656;37.422;2022-12-18T02:16:27;98726.72;;;-5.28
28803;BMP280;15949;55.656;37.422;2022-12-18T02:26:53;98714.88;;;-5.54
28803;BMP280;15949;55.656;37.422;2022-12-18T02:32:02;98713.34;;;-5.55
28803;BMP280;15949;55.656;37.422;2022-12-18T02:37:12;98722.00;;;-5.51
28803;BMP280;15949;55.656;37.422;2022-12-18T02:42:20;98716.63;;;-5.58
28803;BMP280;15949;55.656;37.422;2022-12-18T02:47:30;98721.13;;;-5.55
28803;BMP280;15949;55.656;37.422;2022-12-18T02:58:09;98706.44;;;-5.75
28803;BMP280;15949;55.656;37.422;2022-12-18T03:03:29;98705.03;;;-5.85
28803;BMP280;15949;55.656;37.422;2022-12-18T03:08:42;98708.38;;;-5.85
28803;BMP280;15949;55.656;37.422;2022-12-18T03:13:52;98705.59;;;-5.92
28803;BMP280;15949;55.656;37.422;2022-12-18T03:19:05;98723.97;;;-5.97
28803;BMP280;15949;55.656;37.422;2022-12-18T03:24:12;98719.81;;;-5.98
28803;BMP280;15949;55.656;37.422;2022-12-18T03:29:27;98723.06;;;-6.13
28803;BMP280;15949;55.656;37.422;2022-12-18T03:34:37;98713.44;;;-6.13
28803;BMP280;15949;55.656;37.422;2022-12-18T03:39:43;98711.63;;;-6.12
28803;BMP280;15949;55.656;37.422;2022-12-18T03:50:18;98715.72;;;-6.11
28803;BMP280;15949;55.656;37.422;2022-12-18T03:55:27;98723.50;;;-6.11
28803;BMP280;15949;55.656;37.422;2022-12-18T04:00:36;98702.72;;;-6.36
28803;BMP280;15949;55.656;37.422;2022-12-18T04:05:43;98718.06;;;-6.31
28803;BMP280;15949;55.656;37.422;2022-12-18T04:10:49;98763.13;;;-6.11
28803;BMP280;15949;55.656;37.422;2022-12-18T04:15:55;98769.22;;;-6.28
28803;BMP280;15949;55.656;37.422;2022-12-18T04:21:01;98761.44;;;-6.28
28803;BMP280;15949;55.656;37.422;2022-12-18T04:26:07;98774.56;;;-6.24
28803;BMP280;15949;55.656;37.422;2022-12-18T04:31:13;98783.94;;;-6.32
28803;BMP280;15949;55.656;37.422;2022-12-18T04:36:18;98797.22;;;-6.54
28803;BMP280;15949;55.656;37.422;2022-12-18T04:41:24;98803.47;;;-6.55
28803;BMP280;15949;55.656;37.422;2022-12-18T04:46:30;98794.38;;;-6.61
28803;BMP280;15949;55.656;37.422;2022-12-18T04:51:36;98802.38;;;-6.54
28803;BMP280;15949;55.656;37.422;2022-12-18T04:56:42;98799.13;;;-6.63
28803;BMP280;15949;55.656;37.422;2022-12-18T05:01:48;98791.16;;;-6.58
28803;BMP280;15949;55.656;37.422;2022-12-18T05:06:53;98813.19;;;-6.52
28803;BMP280;15949;55.656;37.422;2022-12-18T05:11:59;98805.81;;;-6.62
28803;BMP280;15949;55.656;37.422;2022-12-18T05:17:05;98811.13;;;-6.59
28803;BMP280;15949;55.656;37.422;2022-12-18T05:22:11;98832.34;;;-6.66
28803;BMP280;15949;55.656;37.422;2022-12-18T05:27:17;98850.19;;;-6.64
28803;BMP280;15949;55.656;37.422;2022-12-18T05:32:24;98858.50;;;-6.58
28803;BMP280;15949;55.656;37.422;2022-12-18T05:37:30;98856.09;;;-6.63
28803;BMP280;15949;55.656;37.422;2022-12-18T05:42:35;98872.41;;;-6.63
28803;BMP280;15949;55.656;37.422;2022-12-18T05:47:41;98877.03;;;-6.69
28803;BMP280;15949;55.656;37.422;2022-12-18T05:52:47;98887.19;;;-6.63
28803;BMP280;15949;55.656;37.422;2022-12-18T05:57:52;98889.34;;;-6.66
28803;BMP280;15949;55.656;37.422;2022-12-18T06:02:59;98896.91;;;-6.60
28803;BMP280;15949;55.656;37.422;2022-12-18T06:08:05;98910.56;;;-6.72
28803;BMP280;15949;55.656;37.422;2022-12-18T06:13:10;98908.97;;;-6.65
28803;BMP280;15949;55.656;37.422;2022-12-18T06:18:16;98927.75;;;-6.68
28803;BMP280;15949;55.656;37.422;2022-12-18T06:23:22;98934.44;;;-6.67
28803;BMP280;15949;55.656;37.422;2022-12-18T06:28:28;98934.31;;;-6.70
28803;BMP280;15949;55.656;37.422;2022-12-18T06:33:34;98945.94;;;-6.55
28803;BMP280;15949;55.656;37.422;2022-12-18T06:38:42;98973.31;;;-6.67
28803;BMP280;15949;55.656;37.422;2022-12-18T06:43:48;98979.34;;;-6.62
28803;BMP280;15949;55.656;37.422;2022-12-18T06:48:54;98985.25;;;-6.53
28803;BMP280;15949;55.656;37.422;2022-12-18T06:53:59;99006.56;;;-6.48
28803;BMP280;15949;55.656;37.422;2022-12-18T06:59:05;99011.47;;;-6.55
28803;BMP280;15949;55.656;37.422;2022-12-18T07:04:11;99020.03;;;-6.63
28803;BMP280;15949;55.656;37.422;2022-12-18T07:09:17;99008.44;;;-6.57
28803;BMP280;15949;55.656;37.422;2022-12-18T07:14:22;99036.84;;;-6.39
28803;BMP280;15949;55.656;37.422;2022-12-18T07:19:29;99046.31;;;-6.43
28803;BMP280;15949;55.656;37.422;2022-12-18T07:24:35;99052.66;;;-6.32
28803;BMP280;15949;55.656;37.422;2022-12-18T07:29:40;99051.47;;;-6.35
28803;BMP280;15949;55.656;37.422;2022-12-18T07:34:46;99050.50;;;-6.51
28803;BMP280;15949;55.656;37.422;2022-12-18T07:39:52;99063.56;;;-6.48
28803;BMP280;15949;55.656;37.422;2022-12-18T07:44:58;99064.75;;;-6.45
28803;BMP280;15949;55.656;37.422;2022-12-18T07:50:05;99069.28;;;-6.33
28803;BMP280;15949;55.656;37.422;2022-12-18T07:55:11;99084.97;;;-6.21
28803;BMP280;15949;55.656;37.422;2022-12-18T08:00:17;99077.25;;;-6.09
28803;BMP280;15949;55.656;37.422;2022-12-18T08:05:22;99095.72;;;-6.10
28803;BMP280;15949;55.656;37.422;2022-12-18T08:10:28;99121.50;;;-6.14
28803;BMP280;15949;55.656;37.422;2022-12-18T08:15:33;99132.91;;;-6.06
28803;BMP280;15949;55.656;37.422;2022-12-18T08:20:39;99128.41;;;-6.27
28803;BMP280;15949;55.656;37.422;2022-12-18T08:25:47;99134.84;;;-6.33
28803;BMP280;15949;55.656;37.422;2022-12-18T08:30:53;99151.72;;;-6.27
28803;BMP280;15949;55.656;37.422;2022-12-18T08:35:59;99156.41;;;-6.11
28803;BMP280;15949;55.656;37.422;2022-12-18T08:41:07;99162.09;;;-6.18
28803;BMP280;15949;55.656;37.422;2022-12-18T08:46:13;99155.53;;;-6.15
28803;BMP280;15949;55.656;37.422;2022-12-18T08:51:19;99152.25;;;-5.95
28803;BMP280;15949;55.656;37.422;2022-12-18T08:56:24;99146.44;;;-5.92
28803;BMP280;15949;55.656;37.422;2022-12-18T09:01:30;99152.06;;;-5.90
28803;BMP280;15949;55.656;37.422;2022-12-18T09:06:36;99161.88;;;-5.74
28803;BMP280;15949;55.656;37.422;2022-12-18T09:11:42;99171.19;;;-5.73
28803;BMP280;15949;55.656;37.422;2022-12-18T09:16:47;99199.81;;;-5.61
28803;BMP280;15949;55.656;37.422;2022-12-18T09:21:53;99206.22;;;-5.67
28803;BMP280;15949;55.656;37.422;2022-12-18T09:26:58;99224.91;;;-5.74
28803;BMP280;15949;55.656;37.422;2022-12-18T09:32:04;99216.16;;;-5.69
28803;BMP280;15949;55.656;37.422;2022-12-18T09:37:10;99223.41;;;-5.45
28803;BMP280;15949;55.656;37.422;2022-12-18T09:42:20;99236.69;;;-5.47
28803;BMP280;15949;55.656;37.422;2022-12-18T09:47:34;99239.97;;;-5.37
28803;BMP280;15949;55.656;37.422;2022-12-18T09:52:45;99245.53;;;-5.18
28803;BMP280;15949;55.656;37.422;2022-12-18T09:57:57;99244.94;;;-5.23
28803;BMP280;15949;55.656;37.422;2022-12-18T10:03:10;99239.28;;;-5.17
28803;BMP280;15949;55.656;37.422;2022-12-18T10:08:37;99249.13;;;-5.31
28803;BMP280;15949;55.656;37.422;2022-12-18T10:14:13;99259.09;;;-5.42
28803;BMP280;15949;55.656;37.422;2022-12-18T10:19:38;99260.50;;;-5.45
28803;BMP280;15949;55.656;37.422;2022-12-18T10:24:59;99257.25;;;-5.41
28803;BMP280;15949;55.656;37.422;2022-12-18T10:30:19;99256.44;;;-5.33
28803;BMP280;15949;55.656;37.422;2022-12-18T10:35:26;99261.28;;;-5.53
28803;BMP280;15949;55.656;37.422;2022-12-18T10:40:32;99268.50;;;-5.58
28803;BMP280;15949;55.656;37.422;2022-12-18T10:51:25;99297.19;;;-5.55
28803;BMP280;15949;55.656;37.422;2022-12-18T10:56:34;99322.09;;;-5.71
28803;BMP280;15949;55.656;37.422;2022-12-18T11:07:00;99345.16;;;-5.78
28803;BMP280;15949;55.656;37.422;2022-12-18T11:12:17;99331.63;;;-5.84
28803;BMP280;15949;55.656;37.422;2022-12-18T11:17:31;99326.44;;;-5.84
28803;BMP280;15949;55.656;37.422;2022-12-18T11:22:37;99329.94;;;-5.89
28803;BMP280;15949;55.656;37.422;2022-12-18T11:27:52;99338.50;;;-5.88
28803;BMP280;15949;55.656;37.422;2022-12-18T11:33:02;99348.41;;;-5.90
28803;BMP280;15949;55.656;37.422;2022-12-18T11:38:20;99363.81;;;-5.94
28803;BMP280;15949;55.656;37.422;2022-12-18T11:43:51;99362.88;;;-5.80
28803;BMP280;15949;55.656;37.422;2022-12-18T11:49:01;99374.78;;;-5.79
28803;BMP280;15949;55.656;37.422;2022-12-18T11:54:13;99392.16;;;-5.80
28803;BMP280;15949;55.656;37.422;2022-12-18T12:15:25;99438.41;;;-5.82
28803;BMP280;15949;55.656;37.422;2022-12-18T12:20:48;99448.81;;;-5.82
28803;BMP280;15949;55.656;37.422;2022-12-18T12:26:07;99463.28;;;-5.90
28803;BMP280;15949;55.656;37.422;2022-12-18T12:42:18;99493.34;;;-5.89
28803;BMP280;15949;55.656;37.422;2022-12-18T12:47:44;99497.75;;;-5.98
28803;BMP280;15949;55.656;37.422;2022-12-18T12:52:55;99513.91;;;-6.01
28803;BMP280;15949;55.656;37.422;2022-12-18T12:58:05;99529.00;;;-6.03
28803;BMP280;15949;55.656;37.422;2022-12-18T13:03:18;99529.00;;;-6.03
28803;BMP280;15949;55.656;37.422;2022-12-18T13:08:32;99543.19;;;-6.00
28803;BMP280;15949;55.656;37.422;2022-12-18T13:13:56;99550.50;;;-6.11
28803;BMP280;15949;55.656;37.422;2022-12-18T13:19:01;99549.13;;;-6.09
28803;BMP280;15949;55.656;37.422;2022-12-18T13:24:19;99563.66;;;-5.99
28803;BMP280;15949;55.656;37.422;2022-12-18T13:29:44;99573.56;;;-6.01
28803;BMP280;15949;55.656;37.422;2022-12-18T13:46:05;99612.53;;;-5.75
28803;BMP280;15949;55.656;37.422;2022-12-18T13:51:11;99630.53;;;-5.78
28803;BMP280;15949;55.656;37.422;2022-12-18T13:56:24;99648.38;;;-5.77
28803;BMP280;15949;55.656;37.422;2022-12-18T14:01:30;99645.34;;;-5.79
28803;BMP280;15949;55.656;37.422;2022-12-18T14:06:36;99657.22;;;-5.78
28803;BMP280;15949;55.656;37.422;2022-12-18T14:11:46;99668.97;;;-5.80
28803;BMP280;15949;55.656;37.422;2022-12-18T14:16:52;99670.47;;;-5.97
28803;BMP280;15949;55.656;37.422;2022-12-18T14:21:58;99688.03;;;-5.94
28803;BMP280;15949;55.656;37.422;2022-12-18T14:27:21;99701.31;;;-5.78
28803;BMP280;15949;55.656;37.422;2022-12-18T14:32:27;99714.00;;;-5.76
28803;BMP280;15949;55.656;37.422;2022-12-18T14:37:32;99707.81;;;-5.98
28803;BMP280;15949;55.656;37.422;2022-12-18T14:42:38;99724.63;;;-5.95
28803;BMP280;15949;55.656;37.422;2022-12-18T14:47:44;99727.94;;;-6.03
28803;BMP280;15949;55.656;37.422;2022-12-18T14:52:50;99745.69;;;-5.97
28803;BMP280;15949;55.656;37.422;2022-12-18T14:57:56;99759.97;;;-5.99
28803;BMP280;15949;55.656;37.422;2022-12-18T15:03:06;99765.00;;;-6.03
28803;BMP280;15949;55.656;37.422;2022-12-18T15:08:34;99766.94;;;-6.09
28803;BMP280;15949;55.656;37.422;2022-12-18T15:13:40;99771.97;;;-6.12
28803;BMP280;15949;55.656;37.422;2022-12-18T15:18:46;99782.00;;;-6.19
28803;BMP280;15949;55.656;37.422;2022-12-18T15:23:53;99790.44;;;-6.28
28803;BMP280;15949;55.656;37.422;2022-12-18T15:28:58;99796.38;;;-6.36
28803;BMP280;15949;55.656;37.422;2022-12-18T15:34:14;99797.88;;;-6.21
28803;BMP280;15949;55.656;37.422;2022-12-18T15:39:24;99817.34;;;-6.23
28803;BMP280;15949;55.656;37.422;2022-12-18T15:44:30;99810.28;;;-6.32
28803;BMP280;15949;55.656;37.422;2022-12-18T15:49:36;99819.31;;;-6.43
28803;BMP280;15949;55.656;37.422;2022-12-18T15:54:41;99832.75;;;-6.41
28803;BMP280;15949;55.656;37.422;2022-12-18T16:00:12;99835.31;;;-6.63
28803;BMP280;15949;55.656;37.422;2022-12-18T16:05:19;99852.03;;;-6.97
28803;BMP280;15949;55.656;37.422;2022-12-18T16:10:26;99877.06;;;-6.79
28803;BMP280;15949;55.656;37.422;2022-12-18T16:15:31;99884.66;;;-6.96
28803;BMP280;15949;55.656;37.422;2022-12-18T16:20:38;99897.50;;;-6.91
28803;BMP280;15949;55.656;37.422;2022-12-18T16:25:43;99908.84;;;-7.34
28803;BMP280;15949;55.656;37.422;2022-12-18T16:30:49;99919.84;;;-7.42
28803;BMP280;15949;55.656;37.422;2022-12-18T16:35:55;99928.75;;;-7.67
28803;BMP280;15949;55.656;37.422;2022-12-18T16:41:00;99937.06;;;-7.89
28803;BMP280;15949;55.656;37.422;2022-12-18T16:46:24;99938.53;;;-8.02
28803;BMP280;15949;55.656;37.422;2022-12-18T16:51:30;99940.31;;;-8.21
28803;BMP280;15949;55.656;37.422;2022-12-18T16:56:36;99952.88;;;-8.15
28803;BMP280;15949;55.656;37.422;2022-12-18T17:01:41;99961.56;;;-8.25
28803;BMP280;15949;55.656;37.422;2022-12-18T17:06:47;99969.84;;;-8.28
28803;BMP280;15949;55.656;37.422;2022-12-18T17:12:02;99977.06;;;-8.25
28803;BMP280;15949;55.656;37.422;2022-12-18T17:17:07;99988.50;;;-8.31
28803;BMP280;15949;55.656;37.422;2022-12-18T17:22:13;99982.38;;;-8.64
28803;BMP280;15949;55.656;37.422;2022-12-18T17:27:19;99997.06;;;-8.59
28803;BMP280;15949;55.656;37.422;2022-12-18T17:32:24;99996.63;;;-8.43
28803;BMP280;15949;55.656;37.422;2022-12-18T17:37:30;100005.50;;;-8.54
28803;BMP280;15949;55.656;37.422;2022-12-18T17:42:35;100008.03;;;-8.73
28803;BMP280;15949;55.656;37.422;2022-12-18T17:47:41;100026.06;;;-8.68
28803;BMP280;15949;55.656;37.422;2022-12-18T17:52:47;100045.16;;;-8.64
28803;BMP280;15949;55.656;37.422;2022-12-18T17:57:53;100038.03;;;-8.77
28803;BMP280;15949;55.656;37.422;2022-12-18T18:02:59;100051.63;;;-9.06
28803;BMP280;15949;55.656;37.422;2022-12-18T18:08:06;100067.28;;;-9.36
28803;BMP280;15949;55.656;37.422;2022-12-18T18:13:23;100073.88;;;-9.70
28803;BMP280;15949;55.656;37.422;2022-12-18T18:18:47;100077.25;;;-9.74
28803;BMP280;15949;55.656;37.422;2022-12-18T18:23:52;100095.34;;;-10.21
28803;BMP280;15949;55.656;37.422;2022-12-18T18:29:00;100102.59;;;-10.28
28803;BMP280;15949;55.656;37.422;2022-12-18T18:34:05;100110.31;;;-10.38
28803;BMP280;15949;55.656;37.422;2022-12-18T18:39:12;100118.53;;;-10.56
28803;BMP280;15949;55.656;37.422;2022-12-18T18:44:19;100121.63;;;-10.75
28803;BMP280;15949;55.656;37.422;2022-12-18T18:49:26;100130.38;;;-10.71
28803;BMP280;15949;55.656;37.422;2022-12-18T18:54:32;100143.75;;;-10.74
28803;BMP280;15949;55.656;37.422;2022-12-18T18:59:37;100158.16;;;-10.78
28803;BMP280;15949;55.656;37.422;2022-12-18T19:04:43;100165.38;;;-10.70
28803;BMP280;15949;55.656;37.422;2022-12-18T19:09:48;100182.59;;;-10.75
28803;BMP280;15949;55.656;37.422;2022-12-18T19:14:56;100185.41;;;-10.77
28803;BMP280;15949;55.656;37.422;2022-12-18T19:20:03;100184.16;;;-10.64
28803;BMP280;15949;55.656;37.422;2022-12-18T19:25:09;100189.56;;;-10.81
28803;BMP280;15949;55.656;37.422;2022-12-18T19:30:14;100194.19;;;-10.83
28803;BMP280;15949;55.656;37.422;2022-12-18T19:35:21;100214.78;;;-10.78
28803;BMP280;15949;55.656;37.422;2022-12-18T19:40:26;100223.47;;;-10.89
28803;BMP280;15949;55.656;37.422;2022-12-18T19:45:32;100227.97;;;-11.17
28803;BMP280;15949;55.656;37.422;2022-12-18T19:50:40;100228.44;;;-11.25
28803;BMP280;15949;55.656;37.422;2022-12-18T19:55:46;100232.06;;;-11.26
28803;BMP280;15949;55.656;37.422;2022-12-18T20:00:52;100239.31;;;-11.13
28803;BMP280;15949;55.656;37.422;2022-12-18T20:11:35;100256.16;;;-11.32
28803;BMP280;15949;55.656;37.422;2022-12-18T20:16:41;100251.53;;;-11.36
28803;BMP280;15949;55.656;37.422;2022-12-18T20:21:47;100263.47;;;-11.19
28803;BMP280;15949;55.656;37.422;2022-12-18T20:26:53;100270.19;;;-11.13
28803;BMP280;15949;55.656;37.422;2022-12-18T20:31:59;100279.91;;;-11.20
28803;BMP280;15949;55.656;37.422;2022-12-18T20:37:04;100284.22;;;-11.31
28803;BMP280;15949;55.656;37.422;2022-12-18T20:42:10;100290.25;;;-11.10
28803;BMP280;15949;55.656;37.422;2022-12-18T20:47:15;100286.13;;;-11.16
28803;BMP280;15949;55.656;37.422;2022-12-18T20:52:21;100292.47;;;-11.29
28803;BMP280;15949;55.656;37.422;2022-12-18T20:57:27;100291.19;;;-11.26
28803;BMP280;15949;55.656;37.422;2022-12-18T21:02:32;100300.50;;;-11.20
28803;BMP280;15949;55.656;37.422;2022-12-18T21:07:38;100290.88;;;-11.35
28803;BMP280;15949;55.656;37.422;2022-12-18T21:12:43;100310.84;;;-11.47
28803;BMP280;15949;55.656;37.422;2022-12-18T21:17:53;100313.13;;;-11.51
28803;BMP280;15949;55.656;37.422;2022-12-18T21:22:58;100307.56;;;-11.70
28803;BMP280;15949;55.656;37.422;2022-12-18T21:28:06;100307.56;;;-11.70
28803;BMP280;15949;55.656;37.422;2022-12-18T21:33:12;100310.94;;;-11.64
28803;BMP280;15949;55.656;37.422;2022-12-18T21:38:17;100319.16;;;-11.62
28803;BMP280;15949;55.656;37.422;2022-12-18T21:43:23;100328.50;;;-11.56
28803;BMP280;15949;55.656;37.422;2022-12-18T21:48:47;100331.59;;;-11.54
28803;BMP280;15949;55.656;37.422;2022-12-18T21:53:52;100331.38;;;-11.80
28803;BMP280;15949;55.656;37.422;2022-12-18T21:58:58;100347.31;;;-11.78
28803;BMP280;15949;55.656;37.422;2022-12-18T22:04:03;100361.88;;;-11.61
28803;BMP280;15949;55.656;37.422;2022-12-18T22:09:12;100362.44;;;-11.54
28803;BMP280;15949;55.656;37.422;2022-12-18T22:14:19;100361.22;;;-11.74
28803;BMP280;15949;55.656;37.422;2022-12-18T22:19:24;100350.66;;;-11.77
28803;BMP280;15949;55.656;37.422;2022-12-18T22:24:30;100349.50;;;-11.64
28803;BMP280;15949;55.656;37.422;2022-12-18T22:29:35;100349.47;;;-11.69
28803;BMP280;15949;55.656;37.422;2022-12-18T22:35:01;100358.19;;;-11.70
28803;BMP280;15949;55.656;37.422;2022-12-18T22:40:11;100363.44;;;-11.60
28803;BMP280;15949;55.656;37.422;2022-12-18T22:45:23;100361.88;;;-11.61
28803;BMP280;15949;55.656;37.422;2022-12-18T22:50:28;100370.56;;;-11.62
28803;BMP280;15949;55.656;37.422;2022-12-18T22:55:34;100369.91;;;-11.52
28803;BMP280;15949;55.656;37.422;2022-12-18T23:00:40;100371.97;;;-11.55
28803;BMP280;15949;55.656;37.422;2022-12-18T23:05:45;100383.59;;;-11.47
28803;BMP280;15949;55.656;37.422;2022-12-18T23:10:52;100395.91;;;-11.49
28803;BMP280;15949;55.656;37.422;2022-12-18T23:15:58;100401.41;;;-11.62
28803;BMP280;15949;55.656;37.422;2022-12-18T23:21:05;100397.38;;;-11.58
28803;BMP280;15949;55.656;37.422;2022-12-18T23:26:13;100403.69;;;-11.44
28803;BMP280;15949;55.656;37.422;2022-12-18T23:31:32;100394.75;;;-11.36
28803;BMP280;15949;55.656;37.422;2022-12-18T23:36:38;100405.84;;;-11.30
28803;BMP280;15949;55.656;37.422;2022-12-18T23:41:44;100408.88;;;-11.39
28803;BMP280;15949;55.656;37.422;2022-12-18T23:46:50;100428.81;;;-11.51
28803;BMP280;15949;55.656;37.422;2022-12-18T23:51:56;100431.81;;;-11.32
28803;BMP280;15949;55.656;37.422;2022-12-18T23:57:01;100447.56;;;-11.28
